Time;durP1;ratioP1;P1;durP2;ratioP2;P2;SDS_P1;SDS_P2;PMS_P1;PMS_P2;Temp;Humidity;BMP_temperature;BMP_pressure;BME280_temperature;BME280_humidity;BME280_pressure;Samples;Min_cycle;Max_cycle;Signal;HPM_P1;HPM_P2
2024/01/01 00:00:57;;;;;;;4.97;4.60;;;;;;;;;;5052000;28;20052;-78
2024/01/01 00:03:22;;;;;;;4.90;4.45;;;;;;;;;;5069200;28;20032;-77
2024/01/01 00:05:49;;;;;;;3.65;3.45;;;;;;;;;;5068181;28;20661;-76
2024/01/01 00:08:15;;;;;;;5.88;5.38;;;;;;;;;;5069113;28;20089;-76
2024/01/01 00:10:47;;;;;;;3.95;3.65;;;;;;;;;;5069404;28;20047;-76
2024/01/01 00:13:15;;;;;;;4.18;3.83;;;;;;;;;;5051305;28;20174;-75
2024/01/01 00:15:41;;;;;;;4.13;3.83;;;;;;;;;;5068930;28;20021;-75
2024/01/01 00:18:07;;;;;;;4.18;3.80;;;;;;;;;;5069116;28;20420;-76
2024/01/01 00:20:33;;;;;;;4.22;3.83;;;;;;;;;;5072084;28;20056;-76
2024/01/01 00:23:00;;;;;;;3.55;3.35;;;;;;;;;;5070794;28;20028;-75
2024/01/01 00:25:26;;;;;;;5.22;3.67;;;;;;;;;;5067106;28;20135;-74
2024/01/01 00:27:52;;;;;;;4.22;3.92;;;;;;;;;;5068797;28;20043;-76
2024/01/01 00:30:19;;;;;;;4.68;4.30;;;;;;;;;;5067722;28;20528;-76
2024/01/01 00:32:45;;;;;;;4.70;4.32;;;;;;;;;;5069216;28;20059;-75
2024/01/01 00:35:11;;;;;;;4.97;4.57;;;;;;;;;;5068717;28;20090;-76
2024/01/01 00:37:37;;;;;;;4.70;4.30;;;;;;;;;;5035497;28;20036;-76
2024/01/01 00:40:05;;;;;;;4.65;4.20;;;;;;;;;;5088771;28;20044;-76
2024/01/01 00:42:31;;;;;;;5.45;4.97;;;;;;;;;;5071026;28;20081;-76
2024/01/01 00:44:57;;;;;;;3.05;2.75;;;;;;;;;;5087655;28;20547;-75
2024/01/01 00:47:23;;;;;;;4.60;4.30;;;;;;;;;;5088647;28;20028;-76
2024/01/01 00:49:49;;;;;;;4.68;4.28;;;;;;;;;;5054575;28;20507;-75
2024/01/01 00:52:15;;;;;;;3.75;3.45;;;;;;;;;;5053713;28;20032;-75
2024/01/01 00:54:44;;;;;;;3.78;3.58;;;;;;;;;;5088243;28;20032;-77
2024/01/01 00:57:10;;;;;;;4.28;4.05;;;;;;;;;;5078909;28;20028;-77
2024/01/01 00:59:37;;;;;;;4.30;4.07;;;;;;;;;;5085895;28;20044;-76
2024/01/01 01:02:03;;;;;;;3.40;3.10;;;;;;;;;;5068419;28;20044;-76
2024/01/01 01:04:29;;;;;;;4.45;3.25;;;;;;;;;;5074521;28;20419;-76
2024/01/01 01:06:55;;;;;;;3.55;3.28;;;;;;;;;;5105659;28;20031;-74
2024/01/01 01:09:21;;;;;;;4.32;3.78;;;;;;;;;;5109037;28;20066;-75
2024/01/01 01:11:47;;;;;;;4.35;4.05;;;;;;;;;;5080714;28;20036;-78
2024/01/01 01:14:13;;;;;;;4.20;3.90;;;;;;;;;;5064722;28;20036;-77
2024/01/01 01:16:38;;;;;;;4.13;3.83;;;;;;;;;;5092652;28;20032;-77
2024/01/01 01:19:04;;;;;;;4.75;4.45;;;;;;;;;;5075710;28;20550;-73
2024/01/01 01:21:30;;;;;;;3.95;3.75;;;;;;;;;;5071022;28;20040;-73
2024/01/01 01:23:58;;;;;;;3.58;3.38;;;;;;;;;;5091866;28;20028;-74
2024/01/01 01:26:24;;;;;;;3.85;3.55;;;;;;;;;;5092877;28;20127;-76
2024/01/01 01:28:50;;;;;;;4.22;3.92;;;;;;;;;;5091415;28;20461;-75
2024/01/01 01:31:16;;;;;;;3.80;3.50;;;;;;;;;;5077731;28;20044;-76
2024/01/01 01:33:42;;;;;;;5.03;4.63;;;;;;;;;;5071630;28;20396;-76
2024/01/01 01:36:09;;;;;;;4.40;4.10;;;;;;;;;;5070410;28;20131;-75
2024/01/01 01:38:35;;;;;;;4.72;4.30;;;;;;;;;;5071475;28;20036;-75
2024/01/01 01:41:01;;;;;;;4.85;4.40;;;;;;;;;;5071771;28;20090;-75
2024/01/01 01:43:27;;;;;;;4.47;4.20;;;;;;;;;;5071421;28;20037;-76
2024/01/01 01:45:53;;;;;;;5.63;5.13;;;;;;;;;;5070485;28;20079;-75
2024/01/01 01:48:20;;;;;;;3.17;2.97;;;;;;;;;;5070286;28;20028;-75
2024/01/01 01:50:46;;;;;;;5.38;4.97;;;;;;;;;;5071489;28;20408;-75
2024/01/01 01:53:12;;;;;;;3.83;3.53;;;;;;;;;;5070338;28;20040;-75
2024/01/01 01:55:39;;;;;;;3.08;2.88;;;;;;;;;;5071933;28;20073;-75
2024/01/01 01:58:04;;;;;;;4.60;4.30;;;;;;;;;;5068654;28;20200;-75
2024/01/01 02:00:30;;;;;;;4.22;3.92;;;;;;;;;;5090481;28;20131;-75
2024/01/01 02:02:57;;;;;;;4.63;4.25;;;;;;;;;;5073417;28;20035;-75
2024/01/01 02:05:23;;;;;;;3.78;3.47;;;;;;;;;;5091361;28;20032;-75
2024/01/01 02:07:49;;;;;;;4.25;3.90;;;;;;;;;;5091434;28;20157;-74
2024/01/01 02:10:16;;;;;;;5.10;4.05;;;;;;;;;;5072362;28;20484;-74
2024/01/01 02:12:44;;;;;;;2.28;2.13;;;;;;;;;;5089760;28;20032;-75
2024/01/01 02:15:15;;;;;;;3.45;3.17;;;;;;;;;;5091572;28;20047;-75
2024/01/01 02:17:41;;;;;;;;;;;;;;;;;;5090341;28;20034;-76
2024/01/01 02:20:08;;;;;;;2.90;2.70;;;;;;;;;;5090334;28;20273;-76
2024/01/01 02:22:37;;;;;;;2.75;2.58;;;;;;;;;;5091705;28;20039;-75
2024/01/01 02:25:04;;;;;;;4.43;4.13;;;;;;;;;;5090304;28;20036;-76
2024/01/01 02:27:30;;;;;;;3.20;3.00;;;;;;;;;;5090448;28;20086;-75
2024/01/01 02:29:56;;;;;;;2.25;2.15;;;;;;;;;;5091430;28;20040;-75
2024/01/01 02:32:22;;;;;;;2.45;2.20;;;;;;;;;;5093829;28;20048;-76
2024/01/01 02:34:48;;;;;;;4.30;3.90;;;;;;;;;;5094566;28;20067;-75
2024/01/01 02:37:13;;;;;;;2.53;2.42;;;;;;;;;;5075933;28;20066;-76
2024/01/01 02:39:39;;;;;;;2.25;2.08;;;;;;;;;;5095598;28;20047;-77
2024/01/01 02:42:05;;;;;;;2.22;2.08;;;;;;;;;;5094904;28;20032;-76
2024/01/01 02:44:31;;;;;;;3.25;2.95;;;;;;;;;;5093623;28;20072;-76
2024/01/01 02:46:57;;;;;;;3.33;3.03;;;;;;;;;;5092108;28;20132;-76
2024/01/01 02:49:23;;;;;;;4.78;4.38;;;;;;;;;;5091784;28;20118;-76
2024/01/01 02:51:49;;;;;;;3.35;3.15;;;;;;;;;;5077321;28;20021;-75
2024/01/01 02:54:15;;;;;;;3.55;2.40;;;;;;;;;;5092112;28;20051;-74
2024/01/01 02:56:41;;;;;;;4.47;4.07;;;;;;;;;;5072467;28;20032;-75
2024/01/01 02:59:07;;;;;;;3.90;3.60;;;;;;;;;;5091584;28;20031;-75
2024/01/01 03:01:33;;;;;;;2.63;2.53;;;;;;;;;;5094501;28;20044;-76
2024/01/01 03:03:59;;;;;;;3.58;3.38;;;;;;;;;;5095289;28;20039;-76
2024/01/01 03:06:25;;;;;;;2.70;2.60;;;;;;;;;;5096363;28;20039;-76
2024/01/01 03:08:51;;;;;;;3.83;3.53;;;;;;;;;;5097599;28;20028;-76
2024/01/01 03:11:17;;;;;;;2.85;2.65;;;;;;;;;;5098701;28;20052;-76
2024/01/01 03:13:43;;;;;;;4.00;2.58;;;;;;;;;;5094816;28;20039;-76
2024/01/01 03:16:09;;;;;;;4.90;2.08;;;;;;;;;;5074583;28;20139;-76
2024/01/01 03:18:35;;;;;;;3.15;2.92;;;;;;;;;;5074725;28;20134;-75
2024/01/01 03:21:01;;;;;;;3.33;3.13;;;;;;;;;;5075524;28;20063;-76
2024/01/01 03:23:27;;;;;;;3.55;3.33;;;;;;;;;;5093817;28;20020;-76
2024/01/01 03:25:53;;;;;;;3.47;3.17;;;;;;;;;;5093120;28;20119;-75
2024/01/01 03:28:19;;;;;;;2.90;2.78;;;;;;;;;;5093299;28;20031;-76
2024/01/01 03:30:45;;;;;;;3.45;3.25;;;;;;;;;;5073892;28;20203;-76
2024/01/01 03:33:12;;;;;;;4.30;4.00;;;;;;;;;;5091222;28;20118;-77
2024/01/01 03:35:38;;;;;;;3.67;3.38;;;;;;;;;;5089739;28;20040;-75
2024/01/01 03:38:04;;;;;;;3.00;2.80;;;;;;;;;;5092814;28;20070;-78
2024/01/01 03:40:30;;;;;;;5.85;3.95;;;;;;;;;;5094236;28;20103;-75
2024/01/01 03:42:56;;;;;;;2.90;2.67;;;;;;;;;;5091128;28;20074;-75
2024/01/01 03:45:22;;;;;;;3.95;3.67;;;;;;;;;;5095924;28;20036;-76
2024/01/01 03:47:48;;;;;;;5.13;4.72;;;;;;;;;;5097601;28;20531;-77
2024/01/01 03:50:16;;;;;;;4.68;4.38;;;;;;;;;;5098398;28;20047;-76
2024/01/01 03:52:42;;;;;;;3.42;3.22;;;;;;;;;;5093082;28;20032;-77
2024/01/01 03:55:08;;;;;;;4.50;4.20;;;;;;;;;;5091289;28;20036;-77
2024/01/01 03:57:35;;;;;;;3.55;3.35;;;;;;;;;;5091638;28;20139;-77
2024/01/01 04:00:03;;;;;;;4.10;3.70;;;;;;;;;;5063967;28;20887;-76
2024/01/01 04:02:32;;;;;;;3.60;3.40;;;;;;;;;;5102020;28;20031;-75
2024/01/01 04:04:57;;;;;;;3.35;3.15;;;;;;;;;;5094406;28;20063;-75
2024/01/01 04:07:23;;;;;;;4.72;4.43;;;;;;;;;;5092463;28;20500;-76
2024/01/01 04:09:50;;;;;;;3.45;3.22;;;;;;;;;;5092332;28;20050;-76
2024/01/01 04:12:16;;;;;;;3.33;3.13;;;;;;;;;;5089017;28;20044;-77
2024/01/01 04:14:42;;;;;;;4.22;3.95;;;;;;;;;;5089568;28;20040;-76
2024/01/01 04:17:08;;;;;;;4.00;3.80;;;;;;;;;;5089365;28;20062;-76
2024/01/01 04:19:34;;;;;;;4.38;4.13;;;;;;;;;;5088799;28;20046;-75
2024/01/01 04:22:00;;;;;;;4.47;4.10;;;;;;;;;;5070932;28;20036;-75
2024/01/01 04:24:26;;;;;;;5.93;3.88;;;;;;;;;;5088607;28;20119;-76
2024/01/01 04:26:52;;;;;;;4.82;4.43;;;;;;;;;;5087703;28;20849;-76
2024/01/01 04:29:18;;;;;;;3.60;3.40;;;;;;;;;;5088837;28;20046;-75
2024/01/01 04:31:44;;;;;;;3.72;3.53;;;;;;;;;;5087309;28;20066;-75
2024/01/01 04:34:10;;;;;;;3.10;2.90;;;;;;;;;;5071218;28;20035;-76
2024/01/01 04:36:37;;;;;;;4.65;4.35;;;;;;;;;;5088893;28;20082;-76
2024/01/01 04:39:04;;;;;;;3.38;3.17;;;;;;;;;;5088737;28;20623;-76
2024/01/01 04:41:30;;;;;;;4.80;4.40;;;;;;;;;;5087752;28;20039;-76
2024/01/01 04:43:56;;;;;;;3.83;3.53;;;;;;;;;;5089198;28;20040;-75
2024/01/01 04:46:21;;;;;;;4.45;4.13;;;;;;;;;;5089413;28;20641;-76
2024/01/01 04:48:47;;;;;;;4.45;4.13;;;;;;;;;;5089464;28;20513;-75
2024/01/01 04:51:13;;;;;;;3.75;3.45;;;;;;;;;;5088473;28;20054;-75
2024/01/01 04:53:39;;;;;;;8.38;3.90;;;;;;;;;;5087474;28;20035;-74
2024/01/01 04:56:05;;;;;;;4.63;4.30;;;;;;;;;;5089625;28;20028;-75
2024/01/01 04:58:33;;;;;;;5.32;4.75;;;;;;;;;;5089457;28;20043;-76
2024/01/01 05:00:59;;;;;;;3.50;3.28;;;;;;;;;;5093134;28;20039;-77
2024/01/01 05:03:25;;;;;;;4.63;3.85;;;;;;;;;;5096689;28;20542;-77
2024/01/01 05:05:51;;;;;;;3.30;3.10;;;;;;;;;;5090451;28;20059;-77
2024/01/01 05:08:17;;;;;;;4.40;4.10;;;;;;;;;;5090041;28;20046;-76
2024/01/01 05:10:43;;;;;;;4.72;4.43;;;;;;;;;;5087678;28;20065;-76
2024/01/01 05:13:09;;;;;;;3.08;2.90;;;;;;;;;;5089618;28;20097;-76
2024/01/01 05:15:35;;;;;;;4.32;4.03;;;;;;;;;;5091688;28;20036;-76
2024/01/01 05:18:01;;;;;;;4.15;3.83;;;;;;;;;;5093987;28;20036;-77
2024/01/01 05:20:26;;;;;;;2.85;2.63;;;;;;;;;;5094015;28;20119;-77
2024/01/01 05:22:52;;;;;;;4.55;4.25;;;;;;;;;;5087772;28;20721;-77
2024/01/01 05:25:18;;;;;;;3.13;3.00;;;;;;;;;;5088126;28;20043;-77
2024/01/01 05:27:44;;;;;;;3.63;3.42;;;;;;;;;;5087301;28;20032;-77
2024/01/01 05:30:10;;;;;;;4.95;4.50;;;;;;;;;;5088126;28;20040;-77
2024/01/01 05:32:36;;;;;;;4.55;4.10;;;;;;;;;;5070401;28;20055;-77
2024/01/01 05:35:02;;;;;;;2.88;2.78;;;;;;;;;;5088362;28;20134;-78
2024/01/01 05:37:30;;;;;;;4.43;4.03;;;;;;;;;;5087377;28;20044;-77
2024/01/01 05:39:56;;;;;;;3.95;3.65;;;;;;;;;;5070376;28;20444;-77
2024/01/01 05:42:22;;;;;;;4.88;4.57;;;;;;;;;;5088797;28;20036;-78
2024/01/01 05:44:49;;;;;;;3.88;3.58;;;;;;;;;;5070325;28;20036;-77
2024/01/01 05:47:15;;;;;;;5.10;4.70;;;;;;;;;;5088669;28;20050;-79
2024/01/01 05:49:41;;;;;;;3.83;3.58;;;;;;;;;;5085398;28;20552;-79
2024/01/01 05:52:07;;;;;;;3.95;3.65;;;;;;;;;;5067587;28;20056;-78
2024/01/01 05:54:33;;;;;;;8.43;4.72;;;;;;;;;;5066995;28;20079;-77
2024/01/01 05:56:59;;;;;;;4.25;3.95;;;;;;;;;;5068675;28;20024;-78
2024/01/01 05:59:25;;;;;;;4.30;3.75;;;;;;;;;;5088623;28;20032;-78
2024/01/01 06:01:51;;;;;;;3.78;3.55;;;;;;;;;;5088318;28;20519;-79
2024/01/01 06:04:17;;;;;;;4.20;3.90;;;;;;;;;;5073690;28;20801;-79
2024/01/01 06:06:42;;;;;;;2.38;2.28;;;;;;;;;;5091845;28;20116;-77
2024/01/01 06:09:09;;;;;;;4.25;3.85;;;;;;;;;;5092157;28;20521;-77
2024/01/01 06:11:34;;;;;;;4.40;4.10;;;;;;;;;;5091022;28;20519;-77
2024/01/01 06:14:00;;;;;;;4.43;4.13;;;;;;;;;;5092674;28;20032;-78
2024/01/01 06:16:26;;;;;;;4.70;4.30;;;;;;;;;;5090929;28;20466;-78
2024/01/01 06:18:52;;;;;;;4.50;4.10;;;;;;;;;;5091969;28;20485;-78
2024/01/01 06:21:18;;;;;;;3.20;3.10;;;;;;;;;;5091669;28;20035;-76
2024/01/01 06:23:45;;;;;;;3.40;3.20;;;;;;;;;;5091052;28;20028;-76
2024/01/01 06:26:11;;;;;;;4.95;4.55;;;;;;;;;;5091764;28;20345;-78
2024/01/01 06:28:37;;;;;;;5.97;5.57;;;;;;;;;;5092067;28;20053;-78
2024/01/01 06:31:03;;;;;;;4.57;4.28;;;;;;;;;;5092718;28;20056;-76
2024/01/01 06:33:29;;;;;;;5.30;4.88;;;;;;;;;;5093865;28;20119;-75
2024/01/01 06:35:55;;;;;;;4.22;3.92;;;;;;;;;;5090251;28;20032;-73
2024/01/01 06:38:21;;;;;;;2.53;2.30;;;;;;;;;;5090038;28;20039;-75
2024/01/01 06:40:48;;;;;;;4.78;4.38;;;;;;;;;;5090030;28;20028;-74
2024/01/01 06:43:15;;;;;;;5.10;3.28;;;;;;;;;;5091155;28;20052;-75
2024/01/01 06:45:40;;;;;;;3.58;3.38;;;;;;;;;;5073904;28;20024;-75
2024/01/01 06:48:11;;;;;;;4.18;3.92;;;;;;;;;;5095196;28;20091;-75
2024/01/01 06:50:37;;;;;;;3.55;3.25;;;;;;;;;;5087008;28;20067;-76
2024/01/01 06:53:03;;;;;;;4.10;3.80;;;;;;;;;;5110250;28;20036;-76
2024/01/01 06:55:30;;;;;;;4.20;3.90;;;;;;;;;;5099864;28;20033;-77
2024/01/01 06:57:58;;;;;;;4.60;4.20;;;;;;;;;;5096880;28;20036;-78
2024/01/01 07:00:23;;;;;;;5.10;4.70;;;;;;;;;;5093510;28;20056;-76
2024/01/01 07:02:50;;;;;;;3.97;3.67;;;;;;;;;;5073355;28;20094;-77
2024/01/01 07:05:16;;;;;;;4.35;3.85;;;;;;;;;;5076993;28;20040;-76
2024/01/01 07:07:42;;;;;;;4.05;3.75;;;;;;;;;;5080811;28;20080;-76
2024/01/01 07:10:08;;;;;;;5.10;4.60;;;;;;;;;;5071328;28;20070;-76
2024/01/01 07:12:34;;;;;;;4.88;4.50;;;;;;;;;;5070732;28;20040;-74
2024/01/01 07:15:01;;;;;;;3.33;3.13;;;;;;;;;;5078624;28;20055;-74
2024/01/01 07:17:30;;;;;;;3.45;3.25;;;;;;;;;;5069446;28;20039;-75
2024/01/01 07:19:56;;;;;;;3.13;2.92;;;;;;;;;;5088803;28;20647;-75
2024/01/01 07:22:21;;;;;;;3.45;3.25;;;;;;;;;;5086852;28;20042;-77
2024/01/01 07:24:47;;;;;;;3.03;2.83;;;;;;;;;;5091020;28;20165;-74
2024/01/01 07:27:13;;;;;;;3.17;2.53;;;;;;;;;;5078903;28;20040;-74
2024/01/01 07:29:39;;;;;;;2.42;2.33;;;;;;;;;;5052715;28;20424;-74
2024/01/01 07:32:06;;;;;;;4.65;4.35;;;;;;;;;;5080075;28;20048;-73
2024/01/01 07:34:31;;;;;;;2.65;2.55;;;;;;;;;;5052281;28;20125;-73
2024/01/01 07:36:57;;;;;;;3.30;3.10;;;;;;;;;;5068917;28;20032;-73
2024/01/01 07:39:24;;;;;;;4.15;3.85;;;;;;;;;;5063513;28;20039;-71
2024/01/01 07:41:51;;;;;;;4.47;4.15;;;;;;;;;;5059340;28;20043;-74
2024/01/01 07:44:16;;;;;;;4.45;4.15;;;;;;;;;;5048254;28;20032;-72
2024/01/01 07:46:42;;;;;;;5.43;4.10;;;;;;;;;;5048049;28;20102;-73
2024/01/01 07:49:08;;;;;;;3.92;3.72;;;;;;;;;;5066152;28;20085;-73
2024/01/01 07:51:34;;;;;;;5.03;4.63;;;;;;;;;;5046426;28;20085;-74
2024/01/01 07:54:00;;;;;;;4.22;3.92;;;;;;;;;;5063996;28;20047;-74
2024/01/01 07:56:26;;;;;;;5.78;4.72;;;;;;;;;;5077974;28;20059;-74
2024/01/01 07:58:53;;;;;;;3.45;3.03;;;;;;;;;;5063268;28;20043;-75
2024/01/01 08:01:19;;;;;;;2.75;2.55;;;;;;;;;;5045290;28;20039;-75
2024/01/01 08:03:44;;;;;;;5.78;5.28;;;;;;;;;;5078052;28;20036;-75
2024/01/01 08:06:10;;;;;;;4.40;3.97;;;;;;;;;;5060763;28;21765;-77
2024/01/01 08:08:36;;;;;;;3.97;3.67;;;;;;;;;;5068988;28;20128;-79
2024/01/01 08:11:02;;;;;;;6.63;4.70;;;;;;;;;;5074484;28;20957;-80
2024/01/01 08:13:29;;;;;;;3.88;3.58;;;;;;;;;;5069035;28;20058;-82
2024/01/01 08:15:54;;;;;;;4.65;4.25;;;;;;;;;;5092712;28;20042;-77
2024/01/01 08:18:20;;;;;;;2.15;2.13;;;;;;;;;;5087587;28;20644;-82
2024/01/01 08:20:47;;;;;;;4.55;4.25;;;;;;;;;;5066138;28;20519;-76
2024/01/01 08:23:12;;;;;;;5.50;3.80;;;;;;;;;;5064060;28;20043;-75
2024/01/01 08:25:39;;;;;;;4.30;3.90;;;;;;;;;;5062924;28;20068;-73
2024/01/01 08:28:05;;;;;;;4.30;3.90;;;;;;;;;;5043867;28;20031;-74
2024/01/01 08:30:31;;;;;;;4.63;4.22;;;;;;;;;;5063328;28;20058;-75
2024/01/01 08:32:57;;;;;;;4.63;4.30;;;;;;;;;;5048095;28;20052;-74
2024/01/01 08:35:23;;;;;;;4.50;4.10;;;;;;;;;;5067213;28;20057;-74
2024/01/01 08:37:49;;;;;;;8.85;4.50;;;;;;;;;;5066778;28;20024;-74
2024/01/01 08:40:15;;;;;;;4.35;4.05;;;;;;;;;;5066657;28;20040;-74
2024/01/01 08:42:41;;;;;;;6.03;5.03;;;;;;;;;;5065362;28;20035;-73
2024/01/01 08:45:07;;;;;;;4.47;4.03;;;;;;;;;;5061670;28;20037;-74
2024/01/01 08:47:32;;;;;;;3.28;3.05;;;;;;;;;;5063301;28;20760;-73
2024/01/01 08:49:59;;;;;;;4.00;3.70;;;;;;;;;;5062588;28;20048;-74
2024/01/01 08:52:25;;;;;;;5.70;5.20;;;;;;;;;;5061093;28;20175;-73
2024/01/01 08:54:50;;;;;;;2.67;2.58;;;;;;;;;;5061393;28;20044;-73
2024/01/01 08:57:17;;;;;;;3.58;3.28;;;;;;;;;;5062884;28;20028;-73
2024/01/01 08:59:45;;;;;;;2.83;2.63;;;;;;;;;;5063167;28;20522;-74
2024/01/01 09:02:11;;;;;;;3.13;2.92;;;;;;;;;;5061676;28;20162;-73
2024/01/01 09:04:37;;;;;;;6.10;5.50;;;;;;;;;;5061801;28;20044;-73
2024/01/01 09:07:04;;;;;;;3.10;2.90;;;;;;;;;;5045331;28;20024;-73
2024/01/01 09:09:30;;;;;;;3.50;3.25;;;;;;;;;;5062584;28;20175;-74
2024/01/01 09:11:56;;;;;;;2.78;2.65;;;;;;;;;;5062342;28;20036;-72
2024/01/01 09:14:22;;;;;;;5.38;4.15;;;;;;;;;;5061762;28;20431;-74
2024/01/01 09:16:48;;;;;;;3.50;3.30;;;;;;;;;;5045157;28;20039;-74
2024/01/01 09:19:17;;;;;;;3.42;2.40;;;;;;;;;;5061276;28;20553;-73
2024/01/01 09:21:46;;;;;;;3.25;3.05;;;;;;;;;;5063282;28;20304;-74
2024/01/01 09:24:12;;;;;;;4.93;4.53;;;;;;;;;;5077112;28;20036;-74
2024/01/01 09:26:38;;;;;;;4.55;3.83;;;;;;;;;;5060871;28;20091;-74
2024/01/01 09:29:04;;;;;;;3.15;2.95;;;;;;;;;;5076980;28;20040;-74
2024/01/01 09:31:31;;;;;;;2.70;2.50;;;;;;;;;;5063027;28;20093;-73
2024/01/01 09:34:06;;;;;;;3.00;2.80;;;;;;;;;;5054599;28;20089;-75
2024/01/01 09:36:32;;;;;;;4.60;3.80;;;;;;;;;;5064446;28;20577;-75
2024/01/01 09:38:58;;;;;;;3.30;3.03;;;;;;;;;;5081238;28;20059;-75
2024/01/01 09:41:25;;;;;;;4.43;3.75;;;;;;;;;;5048664;28;20051;-75
2024/01/01 09:43:57;;;;;;;2.53;2.42;;;;;;;;;;5082868;28;20044;-74
2024/01/01 09:46:38;;;;;;;5.40;4.90;;;;;;;;;;5077221;28;20035;-73
2024/01/01 09:49:04;;;;;;;3.05;2.85;;;;;;;;;;5088514;28;20032;-73
2024/01/01 09:51:36;;;;;;;3.80;3.50;;;;;;;;;;5069922;28;20084;-73
2024/01/01 09:54:02;;;;;;;3.97;3.58;;;;;;;;;;5065143;28;20093;-72
2024/01/01 09:56:28;;;;;;;3.15;2.95;;;;;;;;;;5065371;28;20036;-72
2024/01/01 09:58:57;;;;;;;3.03;2.83;;;;;;;;;;5064928;28;20404;-72
2024/01/01 10:01:23;;;;;;;3.38;3.17;;;;;;;;;;5048333;28;20036;-73
2024/01/01 10:04:02;;;;;;;4.55;4.20;;;;;;;;;;5063445;28;20035;-74
2024/01/01 10:06:28;;;;;;;3.80;3.50;;;;;;;;;;5065227;28;21569;-74
2024/01/01 10:09:04;;;;;;;4.05;3.75;;;;;;;;;;5065749;28;20672;-73
2024/01/01 10:11:30;;;;;;;5.18;2.92;;;;;;;;;;5065482;28;20048;-74
2024/01/01 10:14:04;;;;;;;3.70;3.40;;;;;;;;;;5064236;28;20310;-72
2024/01/01 10:16:30;;;;;;;6.32;4.63;;;;;;;;;;5067192;28;20388;-73
2024/01/01 10:18:57;;;;;;;4.70;4.30;;;;;;;;;;5066791;28;20032;-72
2024/01/01 10:21:30;;;;;;;3.03;2.92;;;;;;;;;;5065753;28;20095;-73
2024/01/01 10:23:57;;;;;;;4.40;4.00;;;;;;;;;;5047231;28;20340;-74
2024/01/01 10:26:23;;;;;;;2.50;2.35;;;;;;;;;;5064232;28;20078;-73
2024/01/01 10:28:49;;;;;;;4.25;3.38;;;;;;;;;;5047843;28;20189;-73
2024/01/01 10:31:15;;;;;;;4.40;3.75;;;;;;;;;;5063316;28;20090;-74
2024/01/01 10:33:41;;;;;;;3.40;3.20;;;;;;;;;;5065974;28;20531;-73
2024/01/01 10:36:07;;;;;;;2.53;2.42;;;;;;;;;;5066453;28;20543;-75
2024/01/01 10:38:33;;;;;;;3.00;2.80;;;;;;;;;;5064391;28;20040;-74
2024/01/01 10:41:00;;;;;;;4.75;2.85;;;;;;;;;;5065816;28;20035;-74
2024/01/01 10:43:29;;;;;;;1.65;1.60;;;;;;;;;;5046844;28;20067;-72
2024/01/01 10:46:05;;;;;;;3.70;3.47;;;;;;;;;;5047608;28;20691;-73
2024/01/01 10:48:34;;;;;;;1.50;1.50;;;;;;;;;;5077510;28;20260;-73
2024/01/01 10:51:15;;;;;;;4.40;3.72;;;;;;;;;;5064020;28;20063;-77
2024/01/01 10:54:04;;;;;;;3.50;3.28;;;;;;;;;;5080493;28;20038;-75
2024/01/01 10:56:56;;;;;;;3.50;3.17;;;;;;;;;;5063333;28;20502;-75
2024/01/01 10:59:24;;;;;;;2.38;2.28;;;;;;;;;;5054342;28;20664;-74
2024/01/01 11:01:50;;;;;;;2.28;2.17;;;;;;;;;;5061538;28;20037;-75
2024/01/01 11:04:20;;;;;;;1.90;1.85;;;;;;;;;;5079889;28;20614;-74
2024/01/01 11:06:46;;;;;;;4.63;4.18;;;;;;;;;;5061858;28;20089;-74
2024/01/01 11:09:18;;;;;;;4.15;3.85;;;;;;;;;;5066251;28;20053;-79
2024/01/01 11:11:55;;;;;;;2.83;2.67;;;;;;;;;;5047319;28;20067;-76
2024/01/01 11:14:25;;;;;;;1.60;1.60;;;;;;;;;;5064266;28;20216;-75
2024/01/01 11:16:52;;;;;;;2.30;2.20;;;;;;;;;;5065411;28;20043;-75
2024/01/01 11:19:51;;;;;;;3.90;3.60;;;;;;;;;;5080190;28;20554;-74
2024/01/01 11:22:20;;;;;;;5.18;4.72;;;;;;;;;;5063808;28;20048;-75
2024/01/01 11:24:46;;;;;;;4.60;4.22;;;;;;;;;;5066742;28;20028;-74
2024/01/01 11:27:28;;;;;;;4.63;4.22;;;;;;;;;;5066597;28;20451;-75
2024/01/01 11:30:01;;;;;;;5.00;4.60;;;;;;;;;;5085456;28;20043;-74
2024/01/01 11:32:30;;;;;;;4.65;4.32;;;;;;;;;;5080330;28;20500;-75
2024/01/01 11:35:22;;;;;;;4.13;3.75;;;;;;;;;;5050808;28;20032;-75
2024/01/01 11:37:49;;;;;;;4.93;4.50;;;;;;;;;;5074254;28;20043;-74
2024/01/01 11:40:16;;;;;;;6.60;5.85;;;;;;;;;;5089658;28;20032;-73
2024/01/01 11:42:42;;;;;;;3.28;2.63;;;;;;;;;;5079824;28;20043;-74
2024/01/01 11:45:15;;;;;;;2.45;2.35;;;;;;;;;;5083048;28;20039;-74
2024/01/01 11:47:42;;;;;;;3.70;3.50;;;;;;;;;;5077932;28;20028;-75
2024/01/01 11:50:11;;;;;;;3.08;2.67;;;;;;;;;;5078436;28;20051;-75
2024/01/01 11:52:37;;;;;;;2.47;2.38;;;;;;;;;;5078601;28;20044;-74
2024/01/01 11:55:06;;;;;;;4.03;3.72;;;;;;;;;;5084565;28;20117;-75
2024/01/01 11:57:34;;;;;;;3.67;3.45;;;;;;;;;;5087038;28;20633;-75
2024/01/01 12:00:00;;;;;;;4.68;4.28;;;;;;;;;;5074856;28;20583;-74
2024/01/01 12:02:27;;;;;;;2.85;2.70;;;;;;;;;;5077813;28;20047;-75
2024/01/01 12:04:54;;;;;;;2.88;2.65;;;;;;;;;;5065355;28;20028;-75
2024/01/01 12:07:29;;;;;;;2.35;2.25;;;;;;;;;;5081338;28;20020;-75
2024/01/01 12:10:03;;;;;;;2.53;2.33;;;;;;;;;;5074881;28;20194;-74
2024/01/01 12:12:29;;;;;;;1.88;1.77;;;;;;;;;;5074421;28;20028;-77
2024/01/01 12:15:10;;;;;;;8.88;3.03;;;;;;;;;;5077157;28;20047;-74
2024/01/01 12:17:38;;;;;;;3.90;2.90;;;;;;;;;;5073076;28;20032;-74
2024/01/01 12:20:10;;;;;;;2.15;2.05;;;;;;;;;;5050190;28;20115;-75
2024/01/01 12:22:36;;;;;;;2.90;2.60;;;;;;;;;;5080593;28;20669;-75
2024/01/01 12:25:03;;;;;;;6.05;4.68;;;;;;;;;;5071376;28;20062;-75
2024/01/01 12:27:29;;;;;;;4.05;3.75;;;;;;;;;;5071348;28;20024;-75
2024/01/01 12:30:03;;;;;;;3.20;3.00;;;;;;;;;;5082836;28;20051;-75
2024/01/01 12:32:30;;;;;;;3.33;3.13;;;;;;;;;;5081894;28;20052;-75
2024/01/01 12:34:56;;;;;;;2.25;2.15;;;;;;;;;;5075625;28;20419;-76
2024/01/01 12:37:26;;;;;;;3.35;3.05;;;;;;;;;;5076695;28;20086;-75
2024/01/01 12:39:52;;;;;;;3.90;3.60;;;;;;;;;;5075343;28;20510;-74
2024/01/01 12:42:17;;;;;;;2.33;2.22;;;;;;;;;;5087008;28;20055;-74
2024/01/01 12:44:44;;;;;;;17.55;6.90;;;;;;;;;;5092605;28;20033;-74
2024/01/01 12:47:10;;;;;;;20.50;11.95;;;;;;;;;;5095295;28;20053;-75
2024/01/01 12:49:36;;;;;;;6.10;5.57;;;;;;;;;;5081534;28;20037;-77
2024/01/01 12:52:03;;;;;;;8.18;7.35;;;;;;;;;;5070089;28;20035;-76
2024/01/01 12:54:29;;;;;;;3.15;2.97;;;;;;;;;;5085154;28;20123;-76
2024/01/01 12:56:57;;;;;;;7.40;5.38;;;;;;;;;;5082321;28;20024;-77
2024/01/01 12:59:23;;;;;;;7.50;5.47;;;;;;;;;;5078501;28;20063;-76
2024/01/01 13:01:49;;;;;;;4.70;4.35;;;;;;;;;;5079786;28;20036;-76
2024/01/01 13:04:18;;;;;;;5.70;4.45;;;;;;;;;;5079435;28;20032;-74
2024/01/01 13:06:47;;;;;;;6.28;5.47;;;;;;;;;;5085293;28;20128;-73
2024/01/01 13:09:14;;;;;;;7.75;5.60;;;;;;;;;;5059879;28;20534;-73
2024/01/01 13:11:41;;;;;;;7.07;6.22;;;;;;;;;;5082814;28;20036;-72
2024/01/01 13:14:07;;;;;;;5.78;5.20;;;;;;;;;;5083203;28;20385;-75
2024/01/01 13:16:35;;;;;;;7.40;5.10;;;;;;;;;;5083708;28;20089;-74
2024/01/01 13:19:02;;;;;;;43.03;18.20;;;;;;;;;;5101478;28;20186;-74
2024/01/01 13:21:29;;;;;;;20.08;10.88;;;;;;;;;;5074768;28;20066;-74
2024/01/01 13:23:56;;;;;;;7.90;6.28;;;;;;;;;;5082298;28;20036;-75
2024/01/01 13:26:25;;;;;;;4.55;4.13;;;;;;;;;;5082353;28;20198;-74
2024/01/01 13:28:52;;;;;;;4.13;3.83;;;;;;;;;;5088924;28;20036;-74
2024/01/01 13:31:21;;;;;;;5.43;5.03;;;;;;;;;;5083010;28;20153;-74
2024/01/01 13:33:47;;;;;;;13.50;9.80;;;;;;;;;;5083143;28;20028;-72
2024/01/01 13:36:13;;;;;;;6.85;6.05;;;;;;;;;;5085826;28;20039;-72
2024/01/01 13:38:41;;;;;;;9.82;6.00;;;;;;;;;;5086879;28;20028;-72
2024/01/01 13:41:09;;;;;;;7.25;6.32;;;;;;;;;;5086067;28;20265;-72
2024/01/01 13:43:42;;;;;;;17.15;14.43;;;;;;;;;;5091396;28;20423;-72
2024/01/01 13:46:10;;;;;;;16.02;12.48;;;;;;;;;;5085650;28;20028;-73
2024/01/01 13:48:36;;;;;;;12.48;7.32;;;;;;;;;;5065444;28;20028;-73
2024/01/01 13:51:02;;;;;;;8.32;6.00;;;;;;;;;;5088306;28;20059;-73
2024/01/01 13:53:32;;;;;;;9.68;7.15;;;;;;;;;;5089966;28;20024;-72
2024/01/01 13:55:58;;;;;;;10.38;6.78;;;;;;;;;;5088620;28;20029;-73
2024/01/01 13:58:24;;;;;;;8.15;4.85;;;;;;;;;;5091897;28;20450;-72
2024/01/01 14:00:49;;;;;;;5.80;5.20;;;;;;;;;;5087474;28;20043;-72
2024/01/01 14:03:18;;;;;;;7.43;6.38;;;;;;;;;;5086033;28;20153;-73
2024/01/01 14:05:44;;;;;;;6.95;4.72;;;;;;;;;;5092896;28;20036;-73
2024/01/01 14:08:09;;;;;;;10.20;7.97;;;;;;;;;;5084630;28;20031;-74
2024/01/01 14:10:36;;;;;;;14.68;8.60;;;;;;;;;;5089425;28;20437;-72
2024/01/01 14:13:02;;;;;;;11.00;6.97;;;;;;;;;;5086970;28;20081;-73
2024/01/01 14:15:28;;;;;;;5.80;5.15;;;;;;;;;;5085570;28;20044;-74
2024/01/01 14:17:55;;;;;;;6.90;6.10;;;;;;;;;;5085904;28;20051;-73
2024/01/01 14:20:21;;;;;;;13.60;7.78;;;;;;;;;;5087074;28;20047;-73
2024/01/01 14:22:47;;;;;;;14.52;9.65;;;;;;;;;;5085765;28;20127;-72
2024/01/01 14:25:14;;;;;;;11.00;8.98;;;;;;;;;;5072187;28;20036;-73
2024/01/01 14:27:42;;;;;;;8.43;7.57;;;;;;;;;;5074396;28;20428;-73
2024/01/01 14:30:12;;;;;;;8.52;6.95;;;;;;;;;;5075154;28;20113;-74
2024/01/01 14:32:37;;;;;;;8.77;5.80;;;;;;;;;;5076779;28;20044;-72
2024/01/01 14:35:04;;;;;;;11.70;8.00;;;;;;;;;;5086037;28;20036;-73
2024/01/01 14:37:30;;;;;;;4.65;2.92;;;;;;;;;;5084830;28;20048;-73
2024/01/01 14:39:56;;;;;;;5.88;5.30;;;;;;;;;;5065719;28;20132;-76
2024/01/01 14:42:22;;;;;;;9.30;7.50;;;;;;;;;;5068379;28;20073;-73